地図

経路データ

SID SEASON NUMBER BASIN SUBBASIN NAME ISO_TIME NATURE LAT LON WMO_WIND WMO_PRES WMO_AGENCY TRACK_TYPE DIST2LAND LANDFALL IFLAG USA_AGENCY USA_ATCF_ID USA_LAT USA_LON USA_RECORD USA_STATUS USA_WIND USA_PRES USA_SSHS USA_R34_NE USA_R34_SE USA_R34_SW USA_R34_NW USA_R50_NE USA_R50_SE USA_R50_SW USA_R50_NW USA_R64_NE USA_R64_SE USA_R64_SW USA_R64_NW USA_POCI USA_ROCI USA_RMW USA_EYE TOKYO_LAT TOKYO_LON TOKYO_GRADE TOKYO_WIND TOKYO_PRES TOKYO_R50_DIR TOKYO_R50_LONG TOKYO_R50_SHORT TOKYO_R30_DIR TOKYO_R30_LONG TOKYO_R30_SHORT TOKYO_LAND CMA_LAT CMA_LON CMA_CAT CMA_WIND CMA_PRES HKO_LAT HKO_LON HKO_CAT HKO_WIND HKO_PRES NEWDELHI_LAT NEWDELHI_LON NEWDELHI_GRADE NEWDELHI_WIND NEWDELHI_PRES NEWDELHI_CI NEWDELHI_DP NEWDELHI_POCI REUNION_LAT REUNION_LON REUNION_TYPE REUNION_WIND REUNION_PRES REUNION_TNUM REUNION_CI REUNION_RMW REUNION_R34_NE REUNION_R34_SE REUNION_R34_SW REUNION_R34_NW REUNION_R50_NE REUNION_R50_SE REUNION_R50_SW REUNION_R50_NW REUNION_R64_NE REUNION_R64_SE REUNION_R64_SW REUNION_R64_NW BOM_LAT BOM_LON BOM_TYPE BOM_WIND BOM_PRES BOM_TNUM BOM_CI BOM_RMW BOM_R34_NE BOM_R34_SE BOM_R34_SW BOM_R34_NW BOM_R50_NE BOM_R50_SE BOM_R50_SW BOM_R50_NW BOM_R64_NE BOM_R64_SE BOM_R64_SW BOM_R64_NW BOM_ROCI BOM_POCI BOM_EYE BOM_POS_METHOD BOM_PRES_METHOD NADI_LAT NADI_LON NADI_CAT NADI_WIND NADI_PRES WELLINGTON_LAT WELLINGTON_LON WELLINGTON_WIND WELLINGTON_PRES DS824_LAT DS824_LON DS824_STAGE DS824_WIND DS824_PRES TD9636_LAT TD9636_LON TD9636_STAGE TD9636_WIND TD9636_PRES TD9635_LAT TD9635_LON TD9635_WIND TD9635_PRES TD9635_ROCI NEUMANN_LAT NEUMANN_LON NEUMANN_CLASS NEUMANN_WIND NEUMANN_PRES MLC_LAT MLC_LON MLC_CLASS MLC_WIND MLC_PRES USA_GUST BOM_GUST BOM_GUST_PER REUNION_GUST REUNION_GUST_PER USA_SEAHGT USA_SEARAD_NE USA_SEARAD_SE USA_SEARAD_SW USA_SEARAD_NW STORM_SPEED STORM_DIR
1888217N21088 1888 34 NI BB NOT_NAMED 1888-08-04 00:00:00 TS 20.6000 88.2000 main 111 111 _________O____ -1 20.6000 88.2000 TC 30 0 0
1888217N21088 1888 34 NI BB NOT_NAMED 1888-08-04 03:00:00 TS 20.6000 88.2000 main 111 111 _________PO___ -1 20.6000 88.2000 TC 30 20.6000 88.2000 1 0 0
1888217N21088 1888 34 NI BB NOT_NAMED 1888-08-04 06:00:00 TS 20.6000 88.2000 main 111 111 _________OP___ -1 20.6000 88.2000 TC 30 20.6000 88.2000 1 0 0
1888217N21088 1888 34 NI BB NOT_NAMED 1888-08-04 09:00:00 TS 20.6000 88.2000 main 111 111 _________PP___ -1 20.6000 88.2000 TC 30 20.6000 88.2000 1 0 0
1888217N21088 1888 34 NI BB NOT_NAMED 1888-08-04 12:00:00 TS 20.6000 88.2000 main 111 111 _________OP___ -1 20.6000 88.2000 TC 30 20.6000 88.2000 1 0 0
1888217N21088 1888 34 NI BB NOT_NAMED 1888-08-04 15:00:00 TS 20.6000 88.2000 main 111 111 _________PO___ -1 20.6000 88.2000 TC 30 20.6000 88.2000 1 0 0
1888217N21088 1888 34 NI BB NOT_NAMED 1888-08-04 18:00:00 TS 20.6000 88.2000 main 111 111 _________OP___ -1 20.6000 88.2000 TC 30 20.6000 88.2000 1 0 0
1888217N21088 1888 34 NI BB NOT_NAMED 1888-08-04 21:00:00 TS 20.6000 88.2000 main 111 111 _________PP___ -1 20.6000 88.2000 TC 30 20.6000 88.2000 1 0 0
1888217N21088 1888 34 NI BB NOT_NAMED 1888-08-05 00:00:00 TS 20.6000 88.2000 main 111 111 _________OP___ -1 20.6000 88.2000 TC 30 20.6000 88.2000 1 0 0
1888217N21088 1888 34 NI BB NOT_NAMED 1888-08-05 03:00:00 TS 20.6000 88.2000 main 111 111 _________PO___ -1 20.6000 88.2000 TC 30 20.6000 88.2000 1 0 0
1888217N21088 1888 34 NI BB NOT_NAMED 1888-08-05 06:00:00 TS 20.6000 88.2000 main 111 111 _________OP___ -1 20.6000 88.2000 TC 30 20.6000 88.2000 1 0 0
1888217N21088 1888 34 NI BB NOT_NAMED 1888-08-05 09:00:00 TS 20.6000 88.2000 main 111 111 _________PP___ -1 20.6000 88.2000 TC 30 20.6000 88.2000 1 0 0
1888217N21088 1888 34 NI BB NOT_NAMED 1888-08-05 12:00:00 TS 20.6000 88.2000 main 111 111 _________OP___ -1 20.6000 88.2000 TC 30 20.6000 88.2000 1 0 0
1888217N21088 1888 34 NI BB NOT_NAMED 1888-08-05 15:00:00 TS 20.6000 88.2000 main 111 111 _________PO___ -1 20.6000 88.2000 TC 30 20.6000 88.2000 1 0 0
1888217N21088 1888 34 NI BB NOT_NAMED 1888-08-05 18:00:00 TS 20.6000 88.2000 main 111 111 _________OP___ -1 20.6000 88.2000 TC 30 20.6000 88.2000 1 0 0
1888217N21088 1888 34 NI BB NOT_NAMED 1888-08-05 21:00:00 TS 20.6000 88.2000 main 111 111 _________PP___ -1 20.6000 88.2000 TC 30 20.6000 88.2000 1 0 0
1888217N21088 1888 34 NI BB NOT_NAMED 1888-08-06 00:00:00 TS 20.6000 88.2000 main 111 111 _________OP___ -1 20.6000 88.2000 TC 30 20.6000 88.2000 1 0 0
1888217N21088 1888 34 NI BB NOT_NAMED 1888-08-06 03:00:00 TS 20.6000 88.2000 main 111 111 _________PO___ -1 20.6000 88.2000 TC 30 20.6000 88.2000 1 0 0
1888217N21088 1888 34 NI BB NOT_NAMED 1888-08-06 06:00:00 TS 20.6000 88.2000 main 111 111 _________OP___ -1 20.6000 88.2000 TC 30 20.6000 88.2000 1 0 0
1888217N21088 1888 34 NI BB NOT_NAMED 1888-08-06 09:00:00 TS 20.6000 88.2000 main 111 111 _________PP___ -1 20.6000 88.2000 TC 30 20.6000 88.2000 1 0 0
1888217N21088 1888 34 NI BB NOT_NAMED 1888-08-06 12:00:00 TS 20.6000 88.2000 main 111 111 _________OP___ -1 20.6000 88.2000 TC 30 20.6000 88.2000 1 0 0
1888217N21088 1888 34 NI BB NOT_NAMED 1888-08-06 15:00:00 TS 20.6000 88.2000 main 111 111 _________PO___ -1 20.6000 88.2000 TC 30 20.6000 88.2000 1 0 0
1888217N21088 1888 34 NI BB NOT_NAMED 1888-08-06 18:00:00 TS 20.5959 88.2081 main 111 111 _________OP___ -1 20.6000 88.2000 TC 30 20.5919 88.2162 1 0 0
1888217N21088 1888 34 NI BB NOT_NAMED 1888-08-06 21:00:00 TS 20.5887 88.2225 main 111 111 _________PP___ -1 20.5925 88.2150 TC 30 20.5850 88.2300 1 0 0
1888217N21088 1888 34 NI BB NOT_NAMED 1888-08-07 00:00:00 TS 20.5928 88.2144 main 111 111 _________OP___ -1 20.6000 88.2000 TC 30 20.5856 88.2287 1 1 298
1888217N21088 1888 34 NI BB NOT_NAMED 1888-08-07 03:00:00 TS 20.6213 88.1575 main 111 101 _________PO___ -1 20.6425 88.1150 TC 30 20.6000 88.2000 1 2 298
1888217N21088 1888 34 NI BB NOT_NAMED 1888-08-07 06:00:00 TS 20.6638 88.0664 main 101 101 _________OP___ -1 20.7000 88.0000 TC 30 20.6275 88.1328 1 2 296
1888217N21088 1888 34 NI BB NOT_NAMED 1888-08-07 09:00:00 TS 20.7062 87.9725 main 102 93 _________PP___ -1 20.7425 87.9075 TC 30 20.6700 88.0375 1 2 298
1888217N21088 1888 34 NI BB NOT_NAMED 1888-08-07 12:00:00 TS 20.7638 87.8617 main 93 72 _________OP___ -1 20.8000 87.8000 TC 30 20.7275 87.9234 1 3 301
1888217N21088 1888 34 NI BB NOT_NAMED 1888-08-07 15:00:00 TS 20.8463 87.7250 main 72 63 _________PO___ -1 20.8925 87.6500 TC 30 20.8000 87.8000 1 3 305
1888217N21088 1888 34 NI BB NOT_NAMED 1888-08-07 18:00:00 TS 20.9408 87.5951 main 63 56 _________OP___ -1 21.0000 87.5000 TC 30 20.8815 87.6903 1 3 310
1888217N21088 1888 34 NI BB NOT_NAMED 1888-08-07 21:00:00 TS 21.0349 87.4862 main 56 53 _________PP___ -1 21.0925 87.3999 TC 30 20.9774 87.5724 1 3 314
1888217N21088 1888 34 NI BB NOT_NAMED 1888-08-08 00:00:00 TS 21.1423 87.3717 main 53 23 _________OP___ -1 21.2000 87.3000 TC 30 21.0846 87.4434 1 3 315
1888217N21088 1888 34 NI BB NOT_NAMED 1888-08-08 03:00:00 TS 21.2750 87.2325 main 23 10 _________PO___ -1 21.3500 87.1650 TC 30 21.2000 87.3000 1 4 314
1888217N21088 1888 34 NI BB NOT_NAMED 1888-08-08 06:00:00 TS 21.4089 87.0717 main 10 0 _________OP___ -1 21.5000 87.0000 TC 30 21.3178 87.1434 1 4 308
1888217N21088 1888 34 NI BB NOT_NAMED 1888-08-08 09:00:00 TS 21.5250 86.8900 main 0 0 _________PP___ -1 21.6075 86.8075 TC 30 21.4425 86.9725 1 4 303
1888217N21088 1888 34 NI BB NOT_NAMED 1888-08-08 12:00:00 TS 21.6354 86.6951 main 0 0 _________OP___ -1 21.7000 86.6000 TC 30 21.5709 86.7903 1 4 301
1888217N21088 1888 34 NI BB NOT_NAMED 1888-08-08 15:00:00 TS 21.7462 86.5000 main 0 0 _________PO___ -1 21.7925 86.3999 TC 30 21.7000 86.6000 1 4 302
1888217N21088 1888 34 NI BB NOT_NAMED 1888-08-08 18:00:00 TS 21.8625 86.2995 main 0 0 _________OP___ -1 21.9000 86.2000 TC 30 21.8250 86.3990 1 5 304
1888217N21088 1888 34 NI BB NOT_NAMED 1888-08-08 21:00:00 TS 22.0000 86.0925 main 0 0 _________PP___ -1 22.0500 85.9925 TC 30 21.9501 86.1925 1 5 306
1888217N21088 1888 34 NI BB NOT_NAMED 1888-08-09 00:00:00 TS 22.1375 85.8948 main 0 0 _________OP___ -1 22.2000 85.8000 TC 30 22.0750 85.9897 1 4 306
1888217N21088 1888 34 NI BB NOT_NAMED 1888-08-09 03:00:00 TS 22.2500 85.7212 main 0 0 _________PO___ -1 22.3000 85.6424 TC 30 22.2000 85.8000 1 4 307
1888217N21088 1888 34 NI BB NOT_NAMED 1888-08-09 06:00:00 TS 22.3624 85.5677 main 0 0 _________OP___ -1 22.4000 85.5000 TC 30 22.3249 85.6355 1 4 312
1888217N21088 1888 34 NI BB NOT_NAMED 1888-08-09 09:00:00 TS 22.4999 85.4174 main 0 0 _________PP___ -1 22.5500 85.3500 TC 30 22.4499 85.4848 1 4 315
1888217N21088 1888 34 NI BB NOT_NAMED 1888-08-09 12:00:00 TS 22.6375 85.2709 main 0 0 _________OP___ -1 22.7000 85.2000 TC 30 22.5749 85.3417 1 4 313
1888217N21088 1888 34 NI BB NOT_NAMED 1888-08-09 15:00:00 TS 22.7500 85.1250 main 0 0 _________PO___ -1 22.8000 85.0499 TC 30 22.7000 85.2000 1 3 310
1888217N21088 1888 34 NI BB NOT_NAMED 1888-08-09 18:00:00 TS 22.8572 84.9883 main 0 0 _________OP___ -1 22.9000 84.9000 TC 30 22.8251 85.0545 1 4 312
1888217N21088 1888 34 NI BB NOT_NAMED 1888-08-09 21:00:00 TS 22.9851 84.8432 main 0 0 _________PP___ -1 23.0375 84.7501 TC 30 22.9502 84.9053 1 4 315
1888217N21088 1888 34 NI BB NOT_NAMED 1888-08-10 00:00:00 TS 23.1168 84.7022 main 0 0 _________OP___ -1 23.2000 84.6000 TC 30 23.0751 84.7534 1 3 314
1888217N21088 1888 34 NI BB NOT_NAMED 1888-08-10 03:00:00 NR 23.2000 84.6000 main 0 __________O___ -1 TC 23.2000 84.6000 1 3 312

IBTrACS Databaseについて

本データベースは、米国NOAAが公開する1842年以降の世界の熱帯低気圧のベストトラックデータアーカイブInternational Best Track Archive for Climate Stewardship (IBTrACS)を、ウェブで閲覧しやすい形式に変換したものです。

最終更新日:2021-10-21